sensor_id;sensor_type;location;lat;lon;timestamp;pressure;altitude;pressure_sealevel;temperature;humidity
46430;BME280;32131;53.454;-6.180;2023-03-26T00:00:02;99974.56;;;6.64;98.04
46430;BME280;32131;53.454;-6.180;2023-03-26T00:02:31;99984.88;;;6.66;98.08
46430;BME280;32131;53.454;-6.180;2023-03-26T00:05:00;99982.31;;;6.66;98.24
46430;BME280;32131;53.454;-6.180;2023-03-26T00:07:31;99986.59;;;6.67;98.81
46430;BME280;32131;53.454;-6.180;2023-03-26T00:10:01;99972.91;;;6.68;99.20
46430;BME280;32131;53.454;-6.180;2023-03-26T00:12:29;99976.38;;;6.70;99.91
46430;BME280;32131;53.454;-6.180;2023-03-26T00:14:57;99975.56;;;6.72;100.00
46430;BME280;32131;53.454;-6.180;2023-03-26T00:17:26;99982.47;;;6.75;100.00
46430;BME280;32131;53.454;-6.180;2023-03-26T00:19:54;99978.19;;;6.74;100.00
46430;BME280;32131;53.454;-6.180;2023-03-26T00:22:22;99978.19;;;6.74;100.00
46430;BME280;32131;53.454;-6.180;2023-03-26T00:24:51;99977.34;;;6.75;100.00
46430;BME280;32131;53.454;-6.180;2023-03-26T00:27:20;99981.63;;;6.76;100.00
46430;BME280;32131;53.454;-6.180;2023-03-26T00:29:48;99985.09;;;6.78;100.00
46430;BME280;32131;53.454;-6.180;2023-03-26T00:32:16;99985.91;;;6.77;100.00
46430;BME280;32131;53.454;-6.180;2023-03-26T00:34:44;99987.69;;;6.80;100.00
46430;BME280;32131;53.454;-6.180;2023-03-26T00:37:13;99985.97;;;6.80;100.00
46430;BME280;32131;53.454;-6.180;2023-03-26T00:39:41;99989.38;;;6.78;100.00
46430;BME280;32131;53.454;-6.180;2023-03-26T00:42:14;99991.94;;;6.79;100.00
46430;BME280;32131;53.454;-6.180;2023-03-26T00:44:44;99993.69;;;6.80;100.00
46430;BME280;32131;53.454;-6.180;2023-03-26T00:47:12;99991.13;;;6.82;100.00
46430;BME280;32131;53.454;-6.180;2023-03-26T00:49:41;99993.75;;;6.83;100.00
46430;BME280;32131;53.454;-6.180;2023-03-26T00:52:12;100000.59;;;6.84;100.00
46430;BME280;32131;53.454;-6.180;2023-03-26T00:54:40;99987.75;;;6.84;100.00
46430;BME280;32131;53.454;-6.180;2023-03-26T00:57:08;99991.22;;;6.86;100.00
46430;BME280;32131;53.454;-6.180;2023-03-26T00:59:49;99985.25;;;6.87;100.00
46430;BME280;32131;53.454;-6.180;2023-03-26T01:02:19;99995.63;;;6.93;100.00
46430;BME280;32131;53.454;-6.180;2023-03-26T01:04:52;99990.75;;;7.07;100.00
46430;BME280;32131;53.454;-6.180;2023-03-26T01:07:24;99985.84;;;7.20;100.00
46430;BME280;32131;53.454;-6.180;2023-03-26T01:09:58;99985.13;;;7.29;100.00
46430;BME280;32131;53.454;-6.180;2023-03-26T01:12:28;99991.09;;;7.28;100.00
46430;BME280;32131;53.454;-6.180;2023-03-26T01:15:00;99988.53;;;7.28;100.00
46430;BME280;32131;53.454;-6.180;2023-03-26T01:17:30;99993.72;;;7.31;100.00
46430;BME280;32131;53.454;-6.180;2023-03-26T01:20:07;99998.06;;;7.35;100.00
46430;BME280;32131;53.454;-6.180;2023-03-26T01:22:41;99996.44;;;7.40;100.00
46430;BME280;32131;53.454;-6.180;2023-03-26T01:25:12;99998.97;;;7.37;100.00
46430;BME280;32131;53.454;-6.180;2023-03-26T01:27:43;99999.78;;;7.36;100.00
46430;BME280;32131;53.454;-6.180;2023-03-26T01:30:19;100006.56;;;7.31;100.00
46430;BME280;32131;53.454;-6.180;2023-03-26T01:32:57;99999.53;;;7.22;100.00
46430;BME280;32131;53.454;-6.180;2023-03-26T01:35:42;100016.56;;;7.15;100.00
46430;BME280;32131;53.454;-6.180;2023-03-26T01:38:22;100008.78;;;7.11;100.00
46430;BME280;32131;53.454;-6.180;2023-03-26T01:40:59;100003.56;;;7.06;100.00
46430;BME280;32131;53.454;-6.180;2023-03-26T01:43:36;100012.94;;;7.04;100.00
46430;BME280;32131;53.454;-6.180;2023-03-26T01:46:08;100015.50;;;7.04;100.00
46430;BME280;32131;53.454;-6.180;2023-03-26T01:48:39;100018.06;;;7.04;100.00
46430;BME280;32131;53.454;-6.180;2023-03-26T01:51:10;100022.34;;;7.03;100.00
46430;BME280;32131;53.454;-6.180;2023-03-26T01:53:41;100013.78;;;7.03;100.00
46430;BME280;32131;53.454;-6.180;2023-03-26T01:56:17;100018.03;;;7.01;100.00
46430;BME280;32131;53.454;-6.180;2023-03-26T01:58:55;100013.72;;;7.00;100.00
46430;BME280;32131;53.454;-6.180;2023-03-26T02:01:31;100021.44;;;7.00;100.00
46430;BME280;32131;53.454;-6.180;2023-03-26T02:04:09;100017.09;;;6.97;100.00
46430;BME280;32131;53.454;-6.180;2023-03-26T02:06:43;100023.00;;;6.91;100.00
46430;BME280;32131;53.454;-6.180;2023-03-26T02:09:17;100021.09;;;6.83;100.00
46430;BME280;32131;53.454;-6.180;2023-03-26T02:11:49;100020.16;;;6.78;100.00
46430;BME280;32131;53.454;-6.180;2023-03-26T02:14:18;100021.75;;;6.72;100.00
46430;BME280;32131;53.454;-6.180;2023-03-26T02:16:47;100030.31;;;6.71;100.00
46430;BME280;32131;53.454;-6.180;2023-03-26T02:19:17;100024.22;;;6.68;100.00
46430;BME280;32131;53.454;-6.180;2023-03-26T02:21:47;100029.19;;;6.58;100.00
46430;BME280;32131;53.454;-6.180;2023-03-26T02:24:17;100024.81;;;6.53;100.00
46430;BME280;32131;53.454;-6.180;2023-03-26T02:26:46;100032.31;;;6.45;100.00
46430;BME280;32131;53.454;-6.180;2023-03-26T02:29:17;100029.66;;;6.40;100.00
46430;BME280;32131;53.454;-6.180;2023-03-26T02:31:46;100042.44;;;6.37;100.00
46430;BME280;32131;53.454;-6.180;2023-03-26T02:34:15;100046.66;;;6.35;100.00
46430;BME280;32131;53.454;-6.180;2023-03-26T02:36:43;100045.78;;;6.35;100.00
46430;BME280;32131;53.454;-6.180;2023-03-26T02:39:11;100047.50;;;6.36;100.00
46430;BME280;32131;53.454;-6.180;2023-03-26T02:41:40;100059.47;;;6.34;100.00
46430;BME280;32131;53.454;-6.180;2023-03-26T02:44:08;100064.59;;;6.35;100.00
46430;BME280;32131;53.454;-6.180;2023-03-26T02:46:37;100066.53;;;6.45;100.00
46430;BME280;32131;53.454;-6.180;2023-03-26T02:49:05;100065.94;;;6.57;100.00
46430;BME280;32131;53.454;-6.180;2023-03-26T02:51:34;100065.28;;;6.68;100.00
46430;BME280;32131;53.454;-6.180;2023-03-26T02:54:03;100065.34;;;6.71;100.00
46430;BME280;32131;53.454;-6.180;2023-03-26T02:56:32;100069.56;;;6.69;100.00
46430;BME280;32131;53.454;-6.180;2023-03-26T02:59:01;100071.25;;;6.67;100.00
46430;BME280;32131;53.454;-6.180;2023-03-26T03:01:29;100070.41;;;6.68;100.00
46430;BME280;32131;53.454;-6.180;2023-03-26T03:04:02;100080.00;;;6.76;100.00
46430;BME280;32131;53.454;-6.180;2023-03-26T03:06:30;100084.50;;;6.87;100.00
46430;BME280;32131;53.454;-6.180;2023-03-26T03:08:58;100084.78;;;7.01;100.00
46430;BME280;32131;53.454;-6.180;2023-03-26T03:11:28;100076.38;;;7.11;100.00
46430;BME280;32131;53.454;-6.180;2023-03-26T03:13:56;100086.78;;;7.17;100.00
46430;BME280;32131;53.454;-6.180;2023-03-26T03:16:24;100085.19;;;7.24;100.00
46430;BME280;32131;53.454;-6.180;2023-03-26T03:18:53;100096.44;;;7.29;100.00
46430;BME280;32131;53.454;-6.180;2023-03-26T03:21:26;100088.00;;;7.36;100.00
46430;BME280;32131;53.454;-6.180;2023-03-26T03:23:55;100089.75;;;7.40;100.00
46430;BME280;32131;53.454;-6.180;2023-03-26T03:26:26;100099.28;;;7.46;100.00
46430;BME280;32131;53.454;-6.180;2023-03-26T03:28:57;100100.22;;;7.51;100.00
46430;BME280;32131;53.454;-6.180;2023-03-26T03:31:26;100100.28;;;7.54;100.00
46430;BME280;32131;53.454;-6.180;2023-03-26T03:33:54;100102.03;;;7.57;100.00
46430;BME280;32131;53.454;-6.180;2023-03-26T03:36:22;100103.84;;;7.61;100.00
46430;BME280;32131;53.454;-6.180;2023-03-26T03:38:55;100106.50;;;7.66;100.00
46430;BME280;32131;53.454;-6.180;2023-03-26T03:41:28;100103.13;;;7.70;100.00
46430;BME280;32131;53.454;-6.180;2023-03-26T03:43:56;100106.59;;;7.72;100.00
46430;BME280;32131;53.454;-6.180;2023-03-26T03:46:25;100112.66;;;7.77;100.00
46430;BME280;32131;53.454;-6.180;2023-03-26T03:48:53;100112.72;;;7.79;100.00
46430;BME280;32131;53.454;-6.180;2023-03-26T03:51:23;100113.56;;;7.79;100.00
46430;BME280;32131;53.454;-6.180;2023-03-26T03:53:51;100117.03;;;7.81;100.00
46430;BME280;32131;53.454;-6.180;2023-03-26T03:56:22;100115.31;;;7.82;100.00
46430;BME280;32131;53.454;-6.180;2023-03-26T03:58:51;100120.41;;;7.79;100.00
46430;BME280;32131;53.454;-6.180;2023-03-26T04:01:19;100121.19;;;7.75;100.00
46430;BME280;32131;53.454;-6.180;2023-03-26T04:03:49;100121.03;;;7.65;100.00
46430;BME280;32131;53.454;-6.180;2023-03-26T04:06:19;100127.78;;;7.59;100.00
46430;BME280;32131;53.454;-6.180;2023-03-26T04:08:47;100138.75;;;7.51;100.00
46430;BME280;32131;53.454;-6.180;2023-03-26T04:11:15;100132.69;;;7.48;100.00
46430;BME280;32131;53.454;-6.180;2023-03-26T04:13:45;100131.78;;;7.44;100.00
46430;BME280;32131;53.454;-6.180;2023-03-26T04:16:13;100142.94;;;7.45;100.00
46430;BME280;32131;53.454;-6.180;2023-03-26T04:18:44;100138.72;;;7.47;100.00
46430;BME280;32131;53.454;-6.180;2023-03-26T04:21:12;100140.47;;;7.51;100.00
46430;BME280;32131;53.454;-6.180;2023-03-26T04:23:41;100148.34;;;7.59;100.00
46430;BME280;32131;53.454;-6.180;2023-03-26T04:26:16;100152.75;;;7.66;100.00
46430;BME280;32131;53.454;-6.180;2023-03-26T04:28:50;100157.06;;;7.67;100.00
46430;BME280;32131;53.454;-6.180;2023-03-26T04:31:23;100157.06;;;7.68;100.00
46430;BME280;32131;53.454;-6.180;2023-03-26T04:33:57;100160.50;;;7.69;100.00
46430;BME280;32131;53.454;-6.180;2023-03-26T04:36:28;100163.03;;;7.67;100.00
46430;BME280;32131;53.454;-6.180;2023-03-26T04:38:59;100162.13;;;7.65;100.00
46430;BME280;32131;53.454;-6.180;2023-03-26T04:41:30;100169.00;;;7.65;100.00
46430;BME280;32131;53.454;-6.180;2023-03-26T04:44:03;100174.97;;;7.64;100.00
46430;BME280;32131;53.454;-6.180;2023-03-26T04:46:31;100186.16;;;7.66;100.00
46430;BME280;32131;53.454;-6.180;2023-03-26T04:49:00;100188.72;;;7.66;100.00
46430;BME280;32131;53.454;-6.180;2023-03-26T04:51:35;100199.91;;;7.68;100.00
46430;BME280;32131;53.454;-6.180;2023-03-26T04:54:05;100193.84;;;7.66;100.00
46430;BME280;32131;53.454;-6.180;2023-03-26T04:56:40;100205.75;;;7.61;100.00
46430;BME280;32131;53.454;-6.180;2023-03-26T04:59:21;100201.38;;;7.55;100.00
46430;BME280;32131;53.454;-6.180;2023-03-26T05:01:52;100210.75;;;7.54;100.00
46430;BME280;32131;53.454;-6.180;2023-03-26T05:04:21;100215.84;;;7.51;100.00
46430;BME280;32131;53.454;-6.180;2023-03-26T05:06:49;100226.06;;;7.48;100.00
46430;BME280;32131;53.454;-6.180;2023-03-26T05:09:18;100225.09;;;7.43;100.00
46430;BME280;32131;53.454;-6.180;2023-03-26T05:11:46;100234.50;;;7.41;100.00
46430;BME280;32131;53.454;-6.180;2023-03-26T05:14:20;100238.69;;;7.37;100.00
46430;BME280;32131;53.454;-6.180;2023-03-26T05:16:48;100245.50;;;7.35;100.00
46430;BME280;32131;53.454;-6.180;2023-03-26T05:19:18;100247.16;;;7.33;100.00
46430;BME280;32131;53.454;-6.180;2023-03-26T05:21:47;100250.53;;;7.29;100.00
46430;BME280;32131;53.454;-6.180;2023-03-26T05:24:15;100253.81;;;7.23;100.00
46430;BME280;32131;53.454;-6.180;2023-03-26T05:26:45;100267.41;;;7.19;100.00
46430;BME280;32131;53.454;-6.180;2023-03-26T05:29:14;100273.34;;;7.15;100.00
46430;BME280;32131;53.454;-6.180;2023-03-26T05:31:45;100281.84;;;7.13;100.00
46430;BME280;32131;53.454;-6.180;2023-03-26T05:34:14;100281.78;;;7.11;100.00
46430;BME280;32131;53.454;-6.180;2023-03-26T05:36:42;100288.59;;;7.09;100.00
46430;BME280;32131;53.454;-6.180;2023-03-26T05:39:11;100295.41;;;7.08;100.00
46430;BME280;32131;53.454;-6.180;2023-03-26T05:41:39;100302.09;;;7.02;100.00
46430;BME280;32131;53.454;-6.180;2023-03-26T05:44:12;100307.09;;;6.96;100.00
46430;BME280;32131;53.454;-6.180;2023-03-26T05:46:40;100314.84;;;6.97;100.00
46430;BME280;32131;53.454;-6.180;2023-03-26T05:49:09;100325.19;;;7.00;100.00
46430;BME280;32131;53.454;-6.180;2023-03-26T05:51:37;100321.91;;;7.06;100.00
46430;BME280;32131;53.454;-6.180;2023-03-26T05:54:06;100329.59;;;7.06;100.00
46430;BME280;32131;53.454;-6.180;2023-03-26T05:56:34;100342.25;;;6.98;100.00
46430;BME280;32131;53.454;-6.180;2023-03-26T05:59:05;100351.44;;;6.88;100.00
46430;BME280;32131;53.454;-6.180;2023-03-26T06:01:33;100351.28;;;6.82;100.00
46430;BME280;32131;53.454;-6.180;2023-03-26T06:04:02;100358.00;;;6.77;100.00
46430;BME280;32131;53.454;-6.180;2023-03-26T06:06:34;100363.25;;;6.82;100.00
46430;BME280;32131;53.454;-6.180;2023-03-26T06:09:02;100371.03;;;6.85;100.00
46430;BME280;32131;53.454;-6.180;2023-03-26T06:11:30;100370.13;;;6.83;100.00
46430;BME280;32131;53.454;-6.180;2023-03-26T06:13:58;100382.81;;;6.78;100.00
46430;BME280;32131;53.454;-6.180;2023-03-26T06:16:27;100388.78;;;6.77;100.00
46430;BME280;32131;53.454;-6.180;2023-03-26T06:18:55;100394.13;;;6.85;100.00
46430;BME280;32131;53.454;-6.180;2023-03-26T06:21:24;100401.22;;;6.95;100.00
46430;BME280;32131;53.454;-6.180;2023-03-26T06:23:54;100413.38;;;7.02;100.00
46430;BME280;32131;53.454;-6.180;2023-03-26T06:38:22;100450.25;;;7.41;100.00
46430;BME280;32131;53.454;-6.180;2023-03-26T06:45:17;100460.88;;;7.55;100.00
46430;BME280;32131;53.454;-6.180;2023-03-26T06:59:36;100496.31;;;7.70;100.00
46430;BME280;32131;53.454;-6.180;2023-03-26T07:48:09;100630.50;;;8.27;100.00
46430;BME280;32131;53.454;-6.180;2023-03-26T08:42:03;100760.16;;;8.70;98.77
46430;BME280;32131;53.454;-6.180;2023-03-26T08:50:03;100775.69;;;8.73;96.92
46430;BME280;32131;53.454;-6.180;2023-03-26T09:49:52;100949.91;;;7.83;100.00
46430;BME280;32131;53.454;-6.180;2023-03-26T09:52:49;100953.25;;;7.80;100.00
46430;BME280;32131;53.454;-6.180;2023-03-26T09:55:48;100969.97;;;7.66;100.00
46430;BME280;32131;53.454;-6.180;2023-03-26T11:52:16;101245.19;;;9.04;90.38
46430;BME280;32131;53.454;-6.180;2023-03-26T11:54:53;101245.25;;;9.06;89.77
46430;BME280;32131;53.454;-6.180;2023-03-26T11:57:52;101250.88;;;9.23;89.38
46430;BME280;32131;53.454;-6.180;2023-03-26T12:00:49;101257.09;;;9.60;88.64
46430;BME280;32131;53.454;-6.180;2023-03-26T12:06:51;101273.06;;;10.11;84.05
46430;BME280;32131;53.454;-6.180;2023-03-26T12:13:20;101293.22;;;10.59;82.36
46430;BME280;32131;53.454;-6.180;2023-03-26T12:16:12;101309.63;;;10.98;80.49
46430;BME280;32131;53.454;-6.180;2023-03-26T12:18:57;101318.25;;;11.00;79.00
46430;BME280;32131;53.454;-6.180;2023-03-26T12:24:27;101332.91;;;10.63;77.26
46430;BME280;32131;53.454;-6.180;2023-03-26T12:27:19;101341.81;;;10.41;77.67
46430;BME280;32131;53.454;-6.180;2023-03-26T12:33:02;101350.19;;;10.33;77.72
46430;BME280;32131;53.454;-6.180;2023-03-26T12:35:39;101354.72;;;10.41;77.15
46430;BME280;32131;53.454;-6.180;2023-03-26T12:39:21;101362.97;;;10.61;76.48
46430;BME280;32131;53.454;-6.180;2023-03-26T12:41:34;101359.44;;;10.92;74.49
46430;BME280;32131;53.454;-6.180;2023-03-26T12:44:34;101367.63;;;11.11;73.92
46430;BME280;32131;53.454;-6.180;2023-03-26T12:47:24;101378.25;;;10.87;74.16
46430;BME280;32131;53.454;-6.180;2023-03-26T12:50:43;101388.06;;;10.65;74.40
46430;BME280;32131;53.454;-6.180;2023-03-26T12:56:35;101396.91;;;10.75;73.16
46430;BME280;32131;53.454;-6.180;2023-03-26T12:59:45;101407.19;;;10.73;72.51
46430;BME280;32131;53.454;-6.180;2023-03-26T13:02:31;101425.31;;;10.75;72.21
46430;BME280;32131;53.454;-6.180;2023-03-26T13:05:08;101425.84;;;10.61;71.92
46430;BME280;32131;53.454;-6.180;2023-03-26T13:07:52;101420.72;;;10.63;72.47
46430;BME280;32131;53.454;-6.180;2023-03-26T13:10:26;101419.75;;;10.59;72.89
46430;BME280;32131;53.454;-6.180;2023-03-26T13:12:59;101422.50;;;10.65;72.89
46430;BME280;32131;53.454;-6.180;2023-03-26T13:15:34;101424.44;;;10.74;73.21
46430;BME280;32131;53.454;-6.180;2023-03-26T13:18:07;101433.31;;;10.85;72.96
46430;BME280;32131;53.454;-6.180;2023-03-26T13:20:46;101439.22;;;10.80;71.79
46430;BME280;32131;53.454;-6.180;2023-03-26T13:23:19;101442.56;;;10.76;71.82
46430;BME280;32131;53.454;-6.180;2023-03-26T13:25:51;101440.00;;;10.77;71.71
46430;BME280;32131;53.454;-6.180;2023-03-26T13:28:25;101435.09;;;10.88;71.04
46430;BME280;32131;53.454;-6.180;2023-03-26T13:30:57;101444.25;;;11.09;71.15
46430;BME280;32131;53.454;-6.180;2023-03-26T13:33:36;101447.63;;;11.43;70.08
46430;BME280;32131;53.454;-6.180;2023-03-26T13:36:07;101449.06;;;11.68;68.92
46430;BME280;32131;53.454;-6.180;2023-03-26T13:39:00;101448.28;;;11.71;68.31
46430;BME280;32131;53.454;-6.180;2023-03-26T13:41:36;101453.69;;;11.83;67.06
46430;BME280;32131;53.454;-6.180;2023-03-26T13:44:12;101460.63;;;11.84;67.42
46430;BME280;32131;53.454;-6.180;2023-03-26T13:46:43;101470.25;;;11.90;67.18
46430;BME280;32131;53.454;-6.180;2023-03-26T13:49:12;101474.03;;;12.06;66.97
46430;BME280;32131;53.454;-6.180;2023-03-26T13:51:42;101475.91;;;12.13;66.13
46430;BME280;32131;53.454;-6.180;2023-03-26T13:54:17;101480.13;;;12.08;65.96
46430;BME280;32131;53.454;-6.180;2023-03-26T13:56:49;101489.97;;;12.24;65.56
46430;BME280;32131;53.454;-6.180;2023-03-26T13:59:19;101487.69;;;12.40;65.04
46430;BME280;32131;53.454;-6.180;2023-03-26T14:01:50;101485.69;;;12.26;64.07
46430;BME280;32131;53.454;-6.180;2023-03-26T14:04:21;101492.38;;;12.15;64.35
46430;BME280;32131;53.454;-6.180;2023-03-26T14:06:51;101500.41;;;11.89;64.42
46430;BME280;32131;53.454;-6.180;2023-03-26T14:09:28;101499.81;;;11.61;64.70
46430;BME280;32131;53.454;-6.180;2023-03-26T14:12:05;101507.28;;;11.51;65.64
46430;BME280;32131;53.454;-6.180;2023-03-26T14:14:48;101516.31;;;11.31;65.75
46430;BME280;32131;53.454;-6.180;2023-03-26T14:17:23;101514.25;;;11.18;65.51
46430;BME280;32131;53.454;-6.180;2023-03-26T14:20:06;101515.69;;;11.07;65.75
46430;BME280;32131;53.454;-6.180;2023-03-26T14:22:39;101517.44;;;11.08;66.27
46430;BME280;32131;53.454;-6.180;2023-03-26T14:25:17;101514.72;;;11.37;65.31
46430;BME280;32131;53.454;-6.180;2023-03-26T14:36:11;101515.56;;;12.10;61.84
46430;BME280;32131;53.454;-6.180;2023-03-26T14:38:51;101522.50;;;12.11;62.31
46430;BME280;32131;53.454;-6.180;2023-03-26T14:41:26;101524.88;;;12.02;61.70
46430;BME280;32131;53.454;-6.180;2023-03-26T14:46:55;101539.38;;;11.95;61.10
46430;BME280;32131;53.454;-6.180;2023-03-26T14:52:23;101559.66;;;12.14;60.63
46430;BME280;32131;53.454;-6.180;2023-03-26T14:54:55;101561.81;;;12.35;59.59
46430;BME280;32131;53.454;-6.180;2023-03-26T14:57:30;101570.34;;;12.31;59.01
46430;BME280;32131;53.454;-6.180;2023-03-26T15:00:28;101568.53;;;12.25;58.93
46430;BME280;32131;53.454;-6.180;2023-03-26T15:05:54;101583.72;;;12.51;58.58
46430;BME280;32131;53.454;-6.180;2023-03-26T15:11:18;101595.78;;;12.92;58.07
46430;BME280;32131;53.454;-6.180;2023-03-26T15:17:55;101607.34;;;13.09;56.67
46430;BME280;32131;53.454;-6.180;2023-03-26T15:20:59;101623.16;;;13.23;56.90
46430;BME280;32131;53.454;-6.180;2023-03-26T15:44:30;101640.22;;;11.91;57.05
46430;BME280;32131;53.454;-6.180;2023-03-26T15:50:38;101648.34;;;11.71;56.28
46430;BME280;32131;53.454;-6.180;2023-03-26T15:53:40;101656.06;;;11.70;55.51
46430;BME280;32131;53.454;-6.180;2023-03-26T15:56:29;101653.25;;;11.60;55.96
46430;BME280;32131;53.454;-6.180;2023-03-26T16:02:19;101663.50;;;11.57;56.62
46430;BME280;32131;53.454;-6.180;2023-03-26T16:05:42;101663.94;;;11.41;55.31
46430;BME280;32131;53.454;-6.180;2023-03-26T16:08:33;101657.69;;;11.32;56.11
46430;BME280;32131;53.454;-6.180;2023-03-26T16:11:12;101673.03;;;11.26;56.30
46430;BME280;32131;53.454;-6.180;2023-03-26T16:13:42;101665.75;;;11.13;56.38
46430;BME280;32131;53.454;-6.180;2023-03-26T16:16:24;101676.41;;;10.93;56.48
46430;BME280;32131;53.454;-6.180;2023-03-26T16:19:30;101686.69;;;10.92;56.93
46430;BME280;32131;53.454;-6.180;2023-03-26T16:22:02;101695.16;;;10.86;56.58
46430;BME280;32131;53.454;-6.180;2023-03-26T16:24:32;101697.66;;;10.83;56.81
46430;BME280;32131;53.454;-6.180;2023-03-26T16:27:05;101701.59;;;10.72;56.44
46430;BME280;32131;53.454;-6.180;2023-03-26T16:30:13;101715.94;;;10.62;57.15
46430;BME280;32131;53.454;-6.180;2023-03-26T16:32:46;101707.63;;;10.43;57.17
46430;BME280;32131;53.454;-6.180;2023-03-26T16:38:04;101718.31;;;10.28;58.35
46430;BME280;32131;53.454;-6.180;2023-03-26T16:40:42;101724.91;;;10.20;58.81
46430;BME280;32131;53.454;-6.180;2023-03-26T16:46:01;101738.38;;;10.10;59.50
46430;BME280;32131;53.454;-6.180;2023-03-26T16:48:31;101743.53;;;10.10;60.10
46430;BME280;32131;53.454;-6.180;2023-03-26T16:51:03;101747.00;;;10.12;60.19
46430;BME280;32131;53.454;-6.180;2023-03-26T16:53:36;101753.03;;;10.11;60.18
46430;BME280;32131;53.454;-6.180;2023-03-26T16:56:14;101757.34;;;10.12;60.58
46430;BME280;32131;53.454;-6.180;2023-03-26T16:58:46;101763.38;;;10.12;60.92
46430;BME280;32131;53.454;-6.180;2023-03-26T17:01:21;101771.91;;;10.10;60.76
46430;BME280;32131;53.454;-6.180;2023-03-26T17:03:53;101768.41;;;10.07;61.10
46430;BME280;32131;53.454;-6.180;2023-03-26T17:06:27;101771.00;;;10.09;61.66
46430;BME280;32131;53.454;-6.180;2023-03-26T17:09:01;101777.13;;;10.11;61.65
46430;BME280;32131;53.454;-6.180;2023-03-26T17:11:41;101787.28;;;10.06;62.05
46430;BME280;32131;53.454;-6.180;2023-03-26T17:14:20;101789.66;;;10.00;62.22
46430;BME280;32131;53.454;-6.180;2023-03-26T17:17:02;101803.16;;;9.93;62.31
46430;BME280;32131;53.454;-6.180;2023-03-26T17:19:34;101798.63;;;9.86;62.30
46430;BME280;32131;53.454;-6.180;2023-03-26T17:22:08;101818.13;;;9.78;62.63
46430;BME280;32131;53.454;-6.180;2023-03-26T17:24:41;101823.91;;;9.72;62.90
46430;BME280;32131;53.454;-6.180;2023-03-26T17:27:16;101823.66;;;9.66;63.15
46430;BME280;32131;53.454;-6.180;2023-03-26T17:29:54;101841.81;;;9.67;63.41
46430;BME280;32131;53.454;-6.180;2023-03-26T17:35:08;101855.22;;;9.58;63.66
46430;BME280;32131;53.454;-6.180;2023-03-26T17:37:41;101860.19;;;9.54;63.77
46430;BME280;32131;53.454;-6.180;2023-03-26T17:43:07;101864.50;;;9.53;64.44
46430;BME280;32131;53.454;-6.180;2023-03-26T17:45:37;101864.44;;;9.52;63.96
46430;BME280;32131;53.454;-6.180;2023-03-26T17:48:07;101860.09;;;9.51;64.28
46430;BME280;32131;53.454;-6.180;2023-03-26T17:50:39;101860.19;;;9.54;64.36
46430;BME280;32131;53.454;-6.180;2023-03-26T17:53:12;101867.03;;;9.52;64.30
46430;BME280;32131;53.454;-6.180;2023-03-26T17:55:43;101865.72;;;9.40;64.04
46430;BME280;32131;53.454;-6.180;2023-03-26T18:01:06;101871.88;;;9.44;64.64
46430;BME280;32131;53.454;-6.180;2023-03-26T18:03:40;101871.06;;;9.45;64.73
46430;BME280;32131;53.454;-6.180;2023-03-26T18:06:12;101876.97;;;9.42;64.68
46430;BME280;32131;53.454;-6.180;2023-03-26T18:08:43;101889.59;;;9.36;64.89
46430;BME280;32131;53.454;-6.180;2023-03-26T18:17:09;101898.50;;;9.22;65.64
46430;BME280;32131;53.454;-6.180;2023-03-26T18:19:45;101901.00;;;9.19;66.15
46430;BME280;32131;53.454;-6.180;2023-03-26T18:22:16;101901.81;;;9.18;66.41
46430;BME280;32131;53.454;-6.180;2023-03-26T18:24:45;101901.81;;;9.18;66.43
46430;BME280;32131;53.454;-6.180;2023-03-26T18:27:14;101893.81;;;9.11;66.53
46430;BME280;32131;53.454;-6.180;2023-03-26T18:29:43;101896.09;;;9.04;66.92
46430;BME280;32131;53.454;-6.180;2023-03-26T18:32:23;101894.28;;;9.01;67.17
46430;BME280;32131;53.454;-6.180;2023-03-26T18:34:56;101901.91;;;9.00;67.24
46430;BME280;32131;53.454;-6.180;2023-03-26T18:37:25;101905.00;;;8.91;67.50
46430;BME280;32131;53.454;-6.180;2023-03-26T18:39:55;101904.78;;;8.85;67.88
46430;BME280;32131;53.454;-6.180;2023-03-26T18:42:24;101913.97;;;8.79;68.08
46430;BME280;32131;53.454;-6.180;2023-03-26T18:44:53;101917.19;;;8.74;68.25
46430;BME280;32131;53.454;-6.180;2023-03-26T18:47:34;101917.81;;;8.68;68.64
46430;BME280;32131;53.454;-6.180;2023-03-26T18:50:04;101928.66;;;8.61;68.86
46430;BME280;32131;53.454;-6.180;2023-03-26T18:52:32;101937.84;;;8.54;68.88
46430;BME280;32131;53.454;-6.180;2023-03-26T18:55:00;101945.28;;;8.48;69.20
46430;BME280;32131;53.454;-6.180;2023-03-26T18:57:30;101947.50;;;8.40;68.33
46430;BME280;32131;53.454;-6.180;2023-03-26T19:00:04;101947.03;;;8.29;67.81
46430;BME280;32131;53.454;-6.180;2023-03-26T19:02:37;101954.19;;;8.17;67.99
46430;BME280;32131;53.454;-6.180;2023-03-26T19:05:06;101962.25;;;8.05;67.69
46430;BME280;32131;53.454;-6.180;2023-03-26T19:07:36;101961.53;;;7.90;67.50
46430;BME280;32131;53.454;-6.180;2023-03-26T19:10:04;101965.25;;;7.77;67.62
46430;BME280;32131;53.454;-6.180;2023-03-26T19:12:34;101968.06;;;7.63;67.47
46430;BME280;32131;53.454;-6.180;2023-03-26T19:15:04;101979.50;;;7.52;67.17
46430;BME280;32131;53.454;-6.180;2023-03-26T19:17:34;101979.94;;;7.43;67.58
46430;BME280;32131;53.454;-6.180;2023-03-26T19:20:11;101982.16;;;7.35;67.95
46430;BME280;32131;53.454;-6.180;2023-03-26T19:22:40;101986.84;;;7.26;68.11
46430;BME280;32131;53.454;-6.180;2023-03-26T19:25:14;101982.13;;;7.17;68.48
46430;BME280;32131;53.454;-6.180;2023-03-26T19:27:47;101986.81;;;7.08;68.90
46430;BME280;32131;53.454;-6.180;2023-03-26T19:30:17;101989.88;;;7.01;68.99
46430;BME280;32131;53.454;-6.180;2023-03-26T19:32:53;101997.94;;;6.90;69.22
46430;BME280;32131;53.454;-6.180;2023-03-26T19:35:40;102003.56;;;6.83;69.59
46430;BME280;32131;53.454;-6.180;2023-03-26T19:38:22;102009.25;;;6.78;69.81
46430;BME280;32131;53.454;-6.180;2023-03-26T19:40:51;102008.22;;;6.74;69.20
46430;BME280;32131;53.454;-6.180;2023-03-26T19:43:21;102010.63;;;6.71;69.27
46430;BME280;32131;53.454;-6.180;2023-03-26T19:45:50;102015.44;;;6.65;69.36